sensor_id;sensor_type;location;lat;lon;timestamp;pressure;altitude;pressure_sealevel;temperature;humidity
14242;BME280;7205;50.864;12.766;2022-12-11T00:02:26;96907.00;;;0.91;80.65
14242;BME280;7205;50.864;12.766;2022-12-11T00:04:58;96899.47;;;0.88;81.31
14242;BME280;7205;50.864;12.766;2022-12-11T00:07:39;96903.28;;;0.94;80.72
14242;BME280;7205;50.864;12.766;2022-12-11T00:10:07;96896.59;;;0.91;80.38
14242;BME280;7205;50.864;12.766;2022-12-11T00:12:38;96905.63;;;0.87;80.96
14242;BME280;7205;50.864;12.766;2022-12-11T00:15:14;96903.28;;;0.84;80.27
14242;BME280;7205;50.864;12.766;2022-12-11T00:17:44;96895.91;;;0.80;80.25
14242;BME280;7205;50.864;12.766;2022-12-11T00:20:11;96900.53;;;0.76;80.23
14242;BME280;7205;50.864;12.766;2022-12-11T00:22:40;96892.59;;;0.68;80.20
14242;BME280;7205;50.864;12.766;2022-12-11T00:25:07;96897.78;;;0.68;79.99
14242;BME280;7205;50.864;12.766;2022-12-11T00:27:34;96901.19;;;0.69;80.38
14242;BME280;7205;50.864;12.766;2022-12-11T00:30:01;96896.41;;;0.64;79.77
14242;BME280;7205;50.864;12.766;2022-12-11T00:32:28;96892.31;;;0.62;80.20
14242;BME280;7205;50.864;12.766;2022-12-11T00:34:56;96893.81;;;0.64;80.03
14242;BME280;7205;50.864;12.766;2022-12-11T00:37:23;96897.38;;;0.63;80.32
14242;BME280;7205;50.864;12.766;2022-12-11T00:39:51;96903.25;;;0.65;80.40
14242;BME280;7205;50.864;12.766;2022-12-11T00:42:18;96903.13;;;0.67;80.39
14242;BME280;7205;50.864;12.766;2022-12-11T00:44:45;96901.31;;;0.67;80.28
14242;BME280;7205;50.864;12.766;2022-12-11T00:47:11;96897.94;;;0.67;80.22
14242;BME280;7205;50.864;12.766;2022-12-11T00:49:38;96898.50;;;0.70;80.30
14242;BME280;7205;50.864;12.766;2022-12-11T00:52:05;96909.53;;;0.72;80.06
14242;BME280;7205;50.864;12.766;2022-12-11T00:54:33;96901.19;;;0.69;79.88
14242;BME280;7205;50.864;12.766;2022-12-11T00:57:01;96902.84;;;0.60;79.63
14242;BME280;7205;50.864;12.766;2022-12-11T00:59:28;96906.22;;;0.51;78.82
14242;BME280;7205;50.864;12.766;2022-12-11T01:01:55;96909.72;;;0.41;78.62
14242;BME280;7205;50.864;12.766;2022-12-11T01:04:22;96912.00;;;0.34;78.72
14242;BME280;7205;50.864;12.766;2022-12-11T01:06:49;96907.91;;;0.32;79.33
14242;BME280;7205;50.864;12.766;2022-12-11T01:09:15;96918.31;;;0.32;79.03
14242;BME280;7205;50.864;12.766;2022-12-11T01:12:01;96918.53;;;0.29;78.85
14242;BME280;7205;50.864;12.766;2022-12-11T01:14:28;96922.78;;;0.30;79.13
14242;BME280;7205;50.864;12.766;2022-12-11T01:16:54;96921.97;;;0.29;79.37
14242;BME280;7205;50.864;12.766;2022-12-11T01:19:21;96922.66;;;0.31;79.25
14242;BME280;7205;50.864;12.766;2022-12-11T01:21:48;96916.91;;;0.28;79.28
14242;BME280;7205;50.864;12.766;2022-12-11T01:24:15;96919.91;;;0.23;78.71
14242;BME280;7205;50.864;12.766;2022-12-11T01:26:45;96925.22;;;0.22;78.83
14242;BME280;7205;50.864;12.766;2022-12-11T01:29:13;96927.13;;;0.20;78.64
14242;BME280;7205;50.864;12.766;2022-12-11T01:31:40;96931.34;;;0.21;78.80
14242;BME280;7205;50.864;12.766;2022-12-11T01:34:07;96932.31;;;0.20;79.31
14242;BME280;7205;50.864;12.766;2022-12-11T01:36:37;96940.66;;;0.23;79.04
14242;BME280;7205;50.864;12.766;2022-12-11T01:39:03;96938.06;;;0.23;79.25
14242;BME280;7205;50.864;12.766;2022-12-11T01:41:30;96933.94;;;0.21;79.20
14242;BME280;7205;50.864;12.766;2022-12-11T01:44:04;96934.78;;;0.21;78.98
14242;BME280;7205;50.864;12.766;2022-12-11T01:46:34;96937.50;;;0.20;78.82
14242;BME280;7205;50.864;12.766;2022-12-11T01:49:04;96931.59;;;0.18;78.40
14242;BME280;7205;50.864;12.766;2022-12-11T01:51:35;96938.44;;;0.19;78.84
14242;BME280;7205;50.864;12.766;2022-12-11T01:54:07;96929.97;;;0.17;78.90
14242;BME280;7205;50.864;12.766;2022-12-11T01:56:35;96926.69;;;0.15;78.82
14242;BME280;7205;50.864;12.766;2022-12-11T01:59:08;96930.09;;;0.15;78.94
14242;BME280;7205;50.864;12.766;2022-12-11T02:01:42;96932.44;;;0.18;78.84
14242;BME280;7205;50.864;12.766;2022-12-11T02:04:13;96929.72;;;0.20;78.93
14242;BME280;7205;50.864;12.766;2022-12-11T02:06:42;96937.09;;;0.24;79.15
14242;BME280;7205;50.864;12.766;2022-12-11T02:09:12;96924.69;;;0.28;78.87
14242;BME280;7205;50.864;12.766;2022-12-11T02:11:49;96929.47;;;0.32;79.50
14242;BME280;7205;50.864;12.766;2022-12-11T02:14:26;96929.13;;;0.37;79.22
14242;BME280;7205;50.864;12.766;2022-12-11T02:16:59;96934.03;;;0.40;78.87
14242;BME280;7205;50.864;12.766;2022-12-11T02:19:43;96921.06;;;0.40;78.97
14242;BME280;7205;50.864;12.766;2022-12-11T02:22:15;96919.53;;;0.37;78.39
14242;BME280;7205;50.864;12.766;2022-12-11T02:25:02;96921.69;;;0.32;78.52
14242;BME280;7205;50.864;12.766;2022-12-11T02:27:35;96915.84;;;0.30;78.33
14242;BME280;7205;50.864;12.766;2022-12-11T02:30:10;96917.72;;;0.28;78.55
14242;BME280;7205;50.864;12.766;2022-12-11T02:32:41;96912.81;;;0.25;78.27
14242;BME280;7205;50.864;12.766;2022-12-11T02:35:12;96917.31;;;0.23;78.28
14242;BME280;7205;50.864;12.766;2022-12-11T02:37:44;96918.94;;;0.24;78.32
14242;BME280;7205;50.864;12.766;2022-12-11T02:40:18;96915.50;;;0.24;78.46
14242;BME280;7205;50.864;12.766;2022-12-11T02:42:47;96918.22;;;0.22;78.38
14242;BME280;7205;50.864;12.766;2022-12-11T02:45:18;96908.69;;;0.23;78.32
14242;BME280;7205;50.864;12.766;2022-12-11T02:47:46;96916.47;;;0.23;78.82
14242;BME280;7205;50.864;12.766;2022-12-11T02:50:19;96913.47;;;0.27;78.65
14242;BME280;7205;50.864;12.766;2022-12-11T02:52:49;96906.34;;;0.20;78.39
14242;BME280;7205;50.864;12.766;2022-12-11T02:55:17;96914.84;;;0.22;78.03
14242;BME280;7205;50.864;12.766;2022-12-11T02:57:49;96908.13;;;0.19;78.33
14242;BME280;7205;50.864;12.766;2022-12-11T03:00:22;96904.81;;;0.17;77.86
14242;BME280;7205;50.864;12.766;2022-12-11T03:02:49;96905.91;;;0.15;77.90
14242;BME280;7205;50.864;12.766;2022-12-11T03:05:15;96902.50;;;0.14;78.41
14242;BME280;7205;50.864;12.766;2022-12-11T03:07:43;96897.00;;;0.08;78.29
14242;BME280;7205;50.864;12.766;2022-12-11T03:10:13;96907.00;;;0.12;78.14
14242;BME280;7205;50.864;12.766;2022-12-11T03:12:42;96907.94;;;0.11;78.07
14242;BME280;7205;50.864;12.766;2022-12-11T03:15:14;96909.97;;;0.08;78.17
14242;BME280;7205;50.864;12.766;2022-12-11T03:17:51;96907.66;;;0.05;77.84
14242;BME280;7205;50.864;12.766;2022-12-11T03:20:27;96914.28;;;-0.03;77.48
14242;BME280;7205;50.864;12.766;2022-12-11T03:23:04;96919.03;;;-0.08;77.88
14242;BME280;7205;50.864;12.766;2022-12-11T03:25:37;96918.59;;;-0.13;78.01
14242;BME280;7205;50.864;12.766;2022-12-11T03:28:10;96913.53;;;-0.14;78.23
14242;BME280;7205;50.864;12.766;2022-12-11T03:30:39;96910.69;;;-0.11;78.14
14242;BME280;7205;50.864;12.766;2022-12-11T03:33:11;96910.00;;;-0.13;78.49
14242;BME280;7205;50.864;12.766;2022-12-11T03:35:40;96901.16;;;-0.11;78.19
14242;BME280;7205;50.864;12.766;2022-12-11T03:38:12;96912.75;;;-0.05;78.93
14242;BME280;7205;50.864;12.766;2022-12-11T03:40:45;96917.59;;;-0.01;78.84
14242;BME280;7205;50.864;12.766;2022-12-11T03:43:19;96917.19;;;0.04;78.75
14242;BME280;7205;50.864;12.766;2022-12-11T03:45:51;96920.75;;;0.03;78.75
14242;BME280;7205;50.864;12.766;2022-12-11T03:48:21;96916.06;;;-0.03;78.23
14242;BME280;7205;50.864;12.766;2022-12-11T03:50:55;96910.50;;;0.02;78.34
14242;BME280;7205;50.864;12.766;2022-12-11T03:53:22;96908.28;;;-0.03;77.85
14242;BME280;7205;50.864;12.766;2022-12-11T03:55:52;96900.50;;;-0.03;78.63
14242;BME280;7205;50.864;12.766;2022-12-11T03:58:22;96908.72;;;0.02;78.83
14242;BME280;7205;50.864;12.766;2022-12-11T04:00:52;96912.00;;;0.04;78.83
14242;BME280;7205;50.864;12.766;2022-12-11T04:03:20;96911.75;;;0.07;78.46
14242;BME280;7205;50.864;12.766;2022-12-11T04:05:49;96908.09;;;0.10;78.63
14242;BME280;7205;50.864;12.766;2022-12-11T04:08:17;96918.91;;;0.15;79.29
14242;BME280;7205;50.864;12.766;2022-12-11T04:10:45;96922.06;;;0.18;78.96
14242;BME280;7205;50.864;12.766;2022-12-11T04:13:15;96924.53;;;0.20;78.83
14242;BME280;7205;50.864;12.766;2022-12-11T04:19:32;96929.00;;;0.18;78.03
14242;BME280;7205;50.864;12.766;2022-12-11T04:22:17;96930.22;;;0.14;77.93
14242;BME280;7205;50.864;12.766;2022-12-11T04:25:03;96927.63;;;0.14;77.88
14242;BME280;7205;50.864;12.766;2022-12-11T04:27:33;96930.91;;;0.16;78.08
14242;BME280;7205;50.864;12.766;2022-12-11T04:30:20;96930.22;;;0.14;77.56
14242;BME280;7205;50.864;12.766;2022-12-11T04:32:48;96926.25;;;0.10;77.44
14242;BME280;7205;50.864;12.766;2022-12-11T04:35:17;96919.66;;;0.06;77.67
14242;BME280;7205;50.864;12.766;2022-12-11T04:37:43;96927.56;;;0.04;77.22
14242;BME280;7205;50.864;12.766;2022-12-11T04:40:12;96931.50;;;-0.02;76.75
14242;BME280;7205;50.864;12.766;2022-12-11T04:42:39;96931.31;;;-0.10;76.53
14242;BME280;7205;50.864;12.766;2022-12-11T04:45:08;96926.06;;;-0.19;76.38
14242;BME280;7205;50.864;12.766;2022-12-11T04:47:40;96909.75;;;-0.31;76.53
14242;BME280;7205;50.864;12.766;2022-12-11T04:50:10;96917.81;;;-0.34;76.53
14242;BME280;7205;50.864;12.766;2022-12-11T04:52:41;96913.94;;;-0.39;76.71
14242;BME280;7205;50.864;12.766;2022-12-11T04:55:14;96915.69;;;-0.40;76.85
14242;BME280;7205;50.864;12.766;2022-12-11T04:57:41;96912.41;;;-0.42;76.96
14242;BME280;7205;50.864;12.766;2022-12-11T05:00:10;96917.56;;;-0.42;76.67
14242;BME280;7205;50.864;12.766;2022-12-11T05:02:38;96916.91;;;-0.44;76.84
14242;BME280;7205;50.864;12.766;2022-12-11T05:05:07;96912.78;;;-0.46;76.78
14242;BME280;7205;50.864;12.766;2022-12-11T05:07:36;96899.00;;;-0.47;76.90
14242;BME280;7205;50.864;12.766;2022-12-11T05:10:05;96915.13;;;-0.43;76.97
14242;BME280;7205;50.864;12.766;2022-12-11T05:12:32;96910.88;;;-0.44;76.77
14242;BME280;7205;50.864;12.766;2022-12-11T05:14:59;96897.94;;;-0.44;77.44
14242;BME280;7205;50.864;12.766;2022-12-11T05:17:26;96899.56;;;-0.43;76.83
14242;BME280;7205;50.864;12.766;2022-12-11T05:19:53;96902.03;;;-0.42;77.18
14242;BME280;7205;50.864;12.766;2022-12-11T05:22:20;96886.72;;;-0.45;77.09
14242;BME280;7205;50.864;12.766;2022-12-11T05:24:46;96892.47;;;-0.41;76.88
14242;BME280;7205;50.864;12.766;2022-12-11T05:27:15;96892.94;;;-0.36;76.67
14242;BME280;7205;50.864;12.766;2022-12-11T05:29:42;96885.28;;;-0.38;76.96
14242;BME280;7205;50.864;12.766;2022-12-11T05:32:09;96888.31;;;-0.33;76.81
14242;BME280;7205;50.864;12.766;2022-12-11T05:34:36;96883.13;;;-0.33;77.15
14242;BME280;7205;50.864;12.766;2022-12-11T05:37:02;96879.44;;;-0.30;76.83
14242;BME280;7205;50.864;12.766;2022-12-11T05:39:32;96884.41;;;-0.27;76.56
14242;BME280;7205;50.864;12.766;2022-12-11T05:41:59;96889.72;;;-0.29;76.32
14242;BME280;7205;50.864;12.766;2022-12-11T05:44:28;96885.84;;;-0.34;76.39
14242;BME280;7205;50.864;12.766;2022-12-11T05:46:55;96886.13;;;-0.37;75.94
14242;BME280;7205;50.864;12.766;2022-12-11T05:49:21;96892.09;;;-0.37;75.98
14242;BME280;7205;50.864;12.766;2022-12-11T05:51:48;96884.72;;;-0.41;76.14
14242;BME280;7205;50.864;12.766;2022-12-11T05:54:15;96873.91;;;-0.46;76.32
14242;BME280;7205;50.864;12.766;2022-12-11T05:56:42;96883.31;;;-0.45;75.59
14242;BME280;7205;50.864;12.766;2022-12-11T05:59:11;96887.56;;;-0.44;75.80
14242;BME280;7205;50.864;12.766;2022-12-11T06:01:41;96883.44;;;-0.47;75.56
14242;BME280;7205;50.864;12.766;2022-12-11T06:04:10;96884.53;;;-0.49;75.73
14242;BME280;7205;50.864;12.766;2022-12-11T06:06:37;96878.63;;;-0.51;75.19
14242;BME280;7205;50.864;12.766;2022-12-11T06:09:05;96878.91;;;-0.54;75.12
14242;BME280;7205;50.864;12.766;2022-12-11T06:11:33;96874.91;;;-0.58;74.73
14242;BME280;7205;50.864;12.766;2022-12-11T06:14:00;96880.34;;;-0.61;75.19
14242;BME280;7205;50.864;12.766;2022-12-11T06:16:27;96886.81;;;-0.56;75.09
14242;BME280;7205;50.864;12.766;2022-12-11T06:18:55;96894.56;;;-0.56;74.86
14242;BME280;7205;50.864;12.766;2022-12-11T06:21:24;96895.28;;;-0.54;75.15
14242;BME280;7205;50.864;12.766;2022-12-11T06:23:54;96887.38;;;-0.52;75.25
14242;BME280;7205;50.864;12.766;2022-12-11T06:26:22;96892.44;;;-0.51;75.13
14242;BME280;7205;50.864;12.766;2022-12-11T06:28:49;96891.59;;;-0.51;74.87
14242;BME280;7205;50.864;12.766;2022-12-11T06:31:17;96892.56;;;-0.52;74.49
14242;BME280;7205;50.864;12.766;2022-12-11T06:33:46;96893.50;;;-0.53;74.51
14242;BME280;7205;50.864;12.766;2022-12-11T06:36:20;96893.63;;;-0.55;74.39
14242;BME280;7205;50.864;12.766;2022-12-11T06:38:47;96900.13;;;-0.60;74.02
14242;BME280;7205;50.864;12.766;2022-12-11T06:41:17;96900.13;;;-0.60;74.43
14242;BME280;7205;50.864;12.766;2022-12-11T06:43:43;96900.00;;;-0.59;74.41
14242;BME280;7205;50.864;12.766;2022-12-11T06:46:12;96901.53;;;-0.56;74.54
14242;BME280;7205;50.864;12.766;2022-12-11T06:48:42;96900.81;;;-0.58;74.53
14242;BME280;7205;50.864;12.766;2022-12-11T06:51:14;96906.69;;;-0.56;74.33
14242;BME280;7205;50.864;12.766;2022-12-11T06:53:43;96899.31;;;-0.61;73.84
14242;BME280;7205;50.864;12.766;2022-12-11T06:56:12;96899.31;;;-0.61;73.70
14242;BME280;7205;50.864;12.766;2022-12-11T06:58:40;96901.66;;;-0.58;74.23
14242;BME280;7205;50.864;12.766;2022-12-11T07:01:13;96899.50;;;-0.53;74.07
14242;BME280;7205;50.864;12.766;2022-12-11T07:03:45;96894.31;;;-0.53;73.54
14242;BME280;7205;50.864;12.766;2022-12-11T07:06:12;96895.81;;;-0.50;73.52
14242;BME280;7205;50.864;12.766;2022-12-11T07:08:40;96889.00;;;-0.51;74.00
14242;BME280;7205;50.864;12.766;2022-12-11T07:11:10;96897.34;;;-0.48;74.24
14242;BME280;7205;50.864;12.766;2022-12-11T07:13:37;96902.84;;;-0.41;74.20
14242;BME280;7205;50.864;12.766;2022-12-11T07:16:05;96903.56;;;-0.39;74.15
14242;BME280;7205;50.864;12.766;2022-12-11T07:18:35;96910.94;;;-0.35;73.98
14242;BME280;7205;50.864;12.766;2022-12-11T07:21:02;96905.63;;;-0.33;73.99
14242;BME280;7205;50.864;12.766;2022-12-11T07:23:29;96916.09;;;-0.24;74.34
14242;BME280;7205;50.864;12.766;2022-12-11T07:25:56;96912.28;;;-0.20;74.30
14242;BME280;7205;50.864;12.766;2022-12-11T07:28:24;96922.84;;;-0.12;74.37
14242;BME280;7205;50.864;12.766;2022-12-11T07:30:51;96928.47;;;-0.07;74.29
14242;BME280;7205;50.864;12.766;2022-12-11T07:33:18;96927.13;;;-0.01;74.40
14242;BME280;7205;50.864;12.766;2022-12-11T07:35:54;96931.50;;;-0.02;73.80
14242;BME280;7205;50.864;12.766;2022-12-11T07:38:21;96920.44;;;-0.04;73.98
14242;BME280;7205;50.864;12.766;2022-12-11T07:40:47;96927.00;;;0.00;73.99
14242;BME280;7205;50.864;12.766;2022-12-11T07:43:14;96924.97;;;0.04;74.08
14242;BME280;7205;50.864;12.766;2022-12-11T07:45:43;96923.09;;;0.06;73.61
14242;BME280;7205;50.864;12.766;2022-12-11T07:48:09;96927.44;;;0.06;73.24
14242;BME280;7205;50.864;12.766;2022-12-11T07:50:37;96921.69;;;0.02;73.57
14242;BME280;7205;50.864;12.766;2022-12-11T07:53:04;96931.56;;;0.08;73.81
14242;BME280;7205;50.864;12.766;2022-12-11T07:55:32;96915.72;;;0.11;73.97
14242;BME280;7205;50.864;12.766;2022-12-11T07:57:58;96915.59;;;0.13;74.00
14242;BME280;7205;50.864;12.766;2022-12-11T08:00:25;96910.59;;;0.21;73.71
14242;BME280;7205;50.864;12.766;2022-12-11T08:02:53;96912.69;;;0.27;74.09
14242;BME280;7205;50.864;12.766;2022-12-11T08:05:20;96912.84;;;0.35;74.29
14242;BME280;7205;50.864;12.766;2022-12-11T08:07:47;96918.19;;;0.43;74.15
14242;BME280;7205;50.864;12.766;2022-12-11T08:10:14;96917.66;;;0.49;73.82
14242;BME280;7205;50.864;12.766;2022-12-11T08:12:41;96924.81;;;0.56;73.79
14242;BME280;7205;50.864;12.766;2022-12-11T08:15:09;96914.97;;;0.60;73.53
14242;BME280;7205;50.864;12.766;2022-12-11T08:17:35;96913.75;;;0.64;73.53
14242;BME280;7205;50.864;12.766;2022-12-11T08:20:04;96907.22;;;0.69;73.74
14242;BME280;7205;50.864;12.766;2022-12-11T08:22:33;96911.91;;;0.75;73.77
14242;BME280;7205;50.864;12.766;2022-12-11T08:25:00;96916.56;;;0.81;73.56
14242;BME280;7205;50.864;12.766;2022-12-11T08:27:27;96909.72;;;0.80;73.39
14242;BME280;7205;50.864;12.766;2022-12-11T08:29:53;96919.00;;;0.83;72.89
14242;BME280;7205;50.864;12.766;2022-12-11T08:32:20;96922.72;;;0.80;72.30
14242;BME280;7205;50.864;12.766;2022-12-11T08:34:50;96916.81;;;0.78;71.79
14242;BME280;7205;50.864;12.766;2022-12-11T08:37:18;96903.69;;;0.70;71.46
14242;BME280;7205;50.864;12.766;2022-12-11T08:39:45;96904.91;;;0.76;71.24
14242;BME280;7205;50.864;12.766;2022-12-11T08:42:12;96906.69;;;0.75;71.01
14242;BME280;7205;50.864;12.766;2022-12-11T08:44:40;96905.88;;;0.75;70.56
14242;BME280;7205;50.864;12.766;2022-12-11T08:47:07;96908.06;;;0.79;71.05
14242;BME280;7205;50.864;12.766;2022-12-11T08:49:35;96911.50;;;0.80;70.61
14242;BME280;7205;50.864;12.766;2022-12-11T08:52:02;96902.88;;;0.79;70.12
14242;BME280;7205;50.864;12.766;2022-12-11T08:54:31;96899.84;;;0.74;69.49
14242;BME280;7205;50.864;12.766;2022-12-11T08:56:58;96900.53;;;0.67;68.95
14242;BME280;7205;50.864;12.766;2022-12-11T08:59:25;96902.00;;;0.60;68.37
14242;BME280;7205;50.864;12.766;2022-12-11T09:01:53;96901.84;;;0.52;67.96
14242;BME280;7205;50.864;12.766;2022-12-11T09:04:20;96911.38;;;0.42;67.28
14242;BME280;7205;50.864;12.766;2022-12-11T09:06:47;96914.03;;;0.31;67.39
14242;BME280;7205;50.864;12.766;2022-12-11T09:09:14;96919.50;;;0.28;67.49
14242;BME280;7205;50.864;12.766;2022-12-11T09:11:42;96922.38;;;0.25;67.79
14242;BME280;7205;50.864;12.766;2022-12-11T09:14:09;96926.47;;;0.27;68.11
14242;BME280;7205;50.864;12.766;2022-12-11T09:16:38;96917.88;;;0.27;67.84
14242;BME280;7205;50.864;12.766;2022-12-11T09:19:26;96914.00;;;0.21;67.69
14242;BME280;7205;50.864;12.766;2022-12-11T09:21:54;96916.16;;;0.16;67.97
14242;BME280;7205;50.864;12.766;2022-12-11T09:24:21;96917.56;;;0.20;68.24
14242;BME280;7205;50.864;12.766;2022-12-11T09:26:49;96910.31;;;0.24;68.45
14242;BME280;7205;50.864;12.766;2022-12-11T09:29:19;96918.16;;;0.33;68.74
14242;BME280;7205;50.864;12.766;2022-12-11T09:31:46;96910.13;;;0.36;68.77
14242;BME280;7205;50.864;12.766;2022-12-11T09:34:16;96912.59;;;0.47;68.61
14242;BME280;7205;50.864;12.766;2022-12-11T09:36:43;96908.53;;;0.54;68.78
14242;BME280;7205;50.864;12.766;2022-12-11T09:39:13;96896.94;;;0.58;67.99
14242;BME280;7205;50.864;12.766;2022-12-11T09:41:47;96905.44;;;0.60;67.62
14242;BME280;7205;50.864;12.766;2022-12-11T09:44:19;96896.25;;;0.56;67.75
14242;BME280;7205;50.864;12.766;2022-12-11T09:46:50;96909.78;;;0.60;67.31
14242;BME280;7205;50.864;12.766;2022-12-11T09:49:24;96897.22;;;0.55;67.64
14242;BME280;7205;50.864;12.766;2022-12-11T09:52:09;96890.66;;;0.61;67.79
14242;BME280;7205;50.864;12.766;2022-12-11T09:54:53;96900.53;;;0.67;67.74
14242;BME280;7205;50.864;12.766;2022-12-11T09:57:34;96903.41;;;0.73;67.74
14242;BME280;7205;50.864;12.766;2022-12-11T10:00:18;96898.38;;;0.81;68.06
14242;BME280;7205;50.864;12.766;2022-12-11T10:03:17;96893.88;;;0.93;68.22
14242;BME280;7205;50.864;12.766;2022-12-11T10:05:53;96886.34;;;0.99;67.74
14242;BME280;7205;50.864;12.766;2022-12-11T10:08:37;96885.28;;;1.02;66.92
14242;BME280;7205;50.864;12.766;2022-12-11T10:11:26;96882.00;;;1.09;67.74
14242;BME280;7205;50.864;12.766;2022-12-11T10:14:03;96889.41;;;1.23;67.30
14242;BME280;7205;50.864;12.766;2022-12-11T10:16:39;96888.28;;;1.26;67.21
14242;BME280;7205;50.864;12.766;2022-12-11T10:19:31;96889.81;;;1.28;66.78
14242;BME280;7205;50.864;12.766;2022-12-11T10:22:00;96885.72;;;1.36;66.47
14242;BME280;7205;50.864;12.766;2022-12-11T10:24:35;96883.34;;;1.33;65.79
14242;BME280;7205;50.864;12.766;2022-12-11T10:27:13;96884.88;;;1.35;66.22
14242;BME280;7205;50.864;12.766;2022-12-11T10:29:44;96876.09;;;1.36;65.63
14242;BME280;7205;50.864;12.766;2022-12-11T10:32:20;96875.31;;;1.36;65.80
14242;BME280;7205;50.864;12.766;2022-12-11T10:34:53;96869.00;;;1.38;65.54
14242;BME280;7205;50.864;12.766;2022-12-11T10:37:23;96871.31;;;1.41;65.17
14242;BME280;7205;50.864;12.766;2022-12-11T10:39:50;96870.38;;;1.42;65.24
14242;BME280;7205;50.864;12.766;2022-12-11T10:42:21;96872.69;;;1.45;65.00
14242;BME280;7205;50.864;12.766;2022-12-11T10:44:55;96870.22;;;1.44;64.90
14242;BME280;7205;50.864;12.766;2022-12-11T10:47:23;96870.22;;;1.44;64.50
14242;BME280;7205;50.864;12.766;2022-12-11T10:49:55;96867.91;;;1.41;64.63
14242;BME280;7205;50.864;12.766;2022-12-11T10:52:30;96866.81;;;1.43;64.77
14242;BME280;7205;50.864;12.766;2022-12-11T10:55:00;96869.81;;;1.48;65.14
14242;BME280;7205;50.864;12.766;2022-12-11T10:57:31;96866.38;;;1.48;64.68
14242;BME280;7205;50.864;12.766;2022-12-11T11:00:04;96866.94;;;1.51;64.49
14242;BME280;7205;50.864;12.766;2022-12-11T11:02:34;96863.78;;;1.48;64.99
14242;BME280;7205;50.864;12.766;2022-12-11T11:05:13;96855.84;;;1.40;63.54
14242;BME280;7205;50.864;12.766;2022-12-11T11:07:44;96858.34;;;1.32;63.44
14242;BME280;7205;50.864;12.766;2022-12-11T11:10:15;96846.28;;;1.21;63.25
14242;BME280;7205;50.864;12.766;2022-12-11T11:12:47;96841.94;;;1.12;63.45
14242;BME280;7205;50.864;12.766;2022-12-11T11:15:24;96839.31;;;1.02;63.45
14242;BME280;7205;50.864;12.766;2022-12-11T11:18:01;96841.34;;;0.99;64.05
14242;BME280;7205;50.864;12.766;2022-12-11T11:20:33;96836.16;;;0.99;64.34
14242;BME280;7205;50.864;12.766;2022-12-11T11:23:10;96830.28;;;0.97;64.46
14242;BME280;7205;50.864;12.766;2022-12-11T11:26:05;96829.47;;;0.96;64.69
14242;BME280;7205;50.864;12.766;2022-12-11T11:28:52;96824.56;;;0.93;65.11
14242;BME280;7205;50.864;12.766;2022-12-11T11:31:31;96818.38;;;0.94;64.89
14242;BME280;7205;50.864;12.766;2022-12-11T11:34:31;96823.16;;;0.99;65.48
14242;BME280;7205;50.864;12.766;2022-12-11T11:37:23;96810.31;;;0.97;65.18
14242;BME280;7205;50.864;12.766;2022-12-11T11:40:36;96807.31;;;1.02;65.67
14242;BME280;7205;50.864;12.766;2022-12-11T11:43:35;96819.75;;;1.08;65.81
14242;BME280;7205;50.864;12.766;2022-12-11T11:46:54;96820.84;;;1.15;65.68
14242;BME280;7205;50.864;12.766;2022-12-11T11:54:30;96801.16;;;1.22;65.13
14242;BME280;7205;50.864;12.766;2022-12-11T11:57:28;96800.88;;;1.25;65.05
14242;BME280;7205;50.864;12.766;2022-12-11T12:00:17;96801.81;;;1.24;65.21
14242;BME280;7205;50.864;12.766;2022-12-11T12:03:11;96802.25;;;1.19;63.97
14242;BME280;7205;50.864;12.766;2022-12-11T12:05:45;96800.88;;;1.15;64.23
14242;BME280;7205;50.864;12.766;2022-12-11T12:08:28;96803.09;;;1.10;63.77
14242;BME280;7205;50.864;12.766;2022-12-11T12:11:01;96799.53;;;1.02;63.53
14242;BME280;7205;50.864;12.766;2022-12-11T12:13:36;96798.16;;;0.98;64.04
14242;BME280;7205;50.864;12.766;2022-12-11T12:16:12;96799.13;;;0.97;64.13
14242;BME280;7205;50.864;12.766;2022-12-11T12:18:47;96790.22;;;0.99;64.52
14242;BME280;7205;50.864;12.766;2022-12-11T12:21:25;96792.81;;;0.99;64.15
14242;BME280;7205;50.864;12.766;2022-12-11T12:24:04;96791.97;;;0.99;63.63
14242;BME280;7205;50.864;12.766;2022-12-11T12:26:37;96790.50;;;0.96;64.11
14242;BME280;7205;50.864;12.766;2022-12-11T12:29:14;96791.56;;;0.94;64.02
14242;BME280;7205;50.864;12.766;2022-12-11T12:31:57;96788.72;;;0.97;64.48
14242;BME280;7205;50.864;12.766;2022-12-11T12:34:39;96791.59;;;1.03;64.83
14242;BME280;7205;50.864;12.766;2022-12-11T12:37:13;96790.63;;;1.04;64.97
14242;BME280;7205;50.864;12.766;2022-12-11T12:39:50;96791.44;;;1.05;64.01
14242;BME280;7205;50.864;12.766;2022-12-11T12:42:29;96778.19;;;0.98;63.97
14242;BME280;7205;50.864;12.766;2022-12-11T12:45:05;96776.94;;;0.93;64.24
14242;BME280;7205;50.864;12.766;2022-12-11T12:47:34;96773.41;;;0.84;63.55
14242;BME280;7205;50.864;12.766;2022-12-11T12:50:03;96776.13;;;0.73;63.05
14242;BME280;7205;50.864;12.766;2022-12-11T12:52:37;96780.66;;;0.62;63.05
14242;BME280;7205;50.864;12.766;2022-12-11T12:55:17;96772.97;;;0.51;62.59
14242;BME280;7205;50.864;12.766;2022-12-11T12:57:50;96768.72;;;0.40;62.85
14242;BME280;7205;50.864;12.766;2022-12-11T13:00:28;96766.38;;;0.37;63.31
14242;BME280;7205;50.864;12.766;2022-12-11T13:02:57;96765.81;;;0.34;63.39
14242;BME280;7205;50.864;12.766;2022-12-11T13:05:26;96765.03;;;0.33;63.48
14242;BME280;7205;50.864;12.766;2022-12-11T13:07:57;96770.34;;;0.32;63.85
14242;BME280;7205;50.864;12.766;2022-12-11T13:10:27;96768.84;;;0.29;63.33
14242;BME280;7205;50.864;12.766;2022-12-11T13:13:31;96764.19;;;0.23;63.52
14242;BME280;7205;50.864;12.766;2022-12-11T13:16:22;96764.56;;;0.19;63.65
14242;BME280;7205;50.864;12.766;2022-12-11T13:18:50;96765.94;;;0.13;63.35
14242;BME280;7205;50.864;12.766;2022-12-11T13:21:29;96776.59;;;0.10;64.08
14242;BME280;7205;50.864;12.766;2022-12-11T13:24:13;96779.19;;;0.10;64.15
14242;BME280;7205;50.864;12.766;2022-12-11T13:26:40;96778.63;;;0.07;64.41
14242;BME280;7205;50.864;12.766;2022-12-11T13:29:33;96778.06;;;0.03;64.50
14242;BME280;7205;50.864;12.766;2022-12-11T13:32:01;96783.06;;;-0.05;64.58
14242;BME280;7205;50.864;12.766;2022-12-11T13:34:31;96780.88;;;-0.10;64.97
14242;BME280;7205;50.864;12.766;2022-12-11T13:37:00;96783.03;;;-0.15;65.32
14242;BME280;7205;50.864;12.766;2022-12-11T13:39:30;96783.16;;;-0.16;65.24
14242;BME280;7205;50.864;12.766;2022-12-11T13:42:00;96780.72;;;-0.18;65.72